Airfield :
LOGIN :

Register | Disclaimer

   EN    FR    IT 

 










Legend :    VFR   Marginal VFR   IFR   Intensive IFR   Very Intensive IFR
Visi :
Ceiling :
>= 8 km
>= 3000ft
5 to 8 km
1000 to 3000 ft
1500m to 5 km
500 to 1000 ft
800 to 1500m
200 to 500 ft
< 800m
< 200 ft
Symbols :   Thunderstorms  Fog  Heavy snow  Heavy precipitations  Wind > 20 kt
SIGMETs :     Misc.  Thunderstorms  Icing  Turbulence  Mountain Waves  Volcanic Ashes






- Airport Elevation : 249 ft


EGOS - RAF Shawbury

CURRENT METAR :
  • 031020Z 06008KT 9999 -RA FEW008 OVC040 13/11 Q1011 TEMPO 6000 RA SCT008 RMK BLU TEMPO GRN

EXPIRED METARs :
  • 030950Z 05007KT 9999 -RA FEW006 BKN045 13/11 Q1010 TEMPO 6000 RA SCT010 RMK BLU TEMPO GRN
  • 030920Z 05008KT 9999 -RA FEW010 BKN040 13/11 Q1010 TEMPO 6000 RA SCT008 RMK BLU TEMPO GRN
  • 030850Z 05010KT 9999 -RA SCT008 OVC040 13/11 Q1010 TEMPO 6000 RA RMK GRN TEMPO GRN
  • 030820Z 03004KT 8000 -RA SCT006 OVC040 13/12 Q1010 TEMPO 6000 -RADZ BKN007 RMK YLO1 TEMPO GRN
  • 030750Z 01006KT 5000 -RADZ FEW004 SCT006 OVC035 13/13 Q1010 TEMPO 4000 RADZ SCT006 RMK GRN TEMPO YLO1

TAF TAF EGOS
Valid from the 03 at 09:00 until the 03 at 18:00 UTC


030729Z 0309/0318 02008KT 9999 -RA BKN025
TEMPO 0309/0312 6000 RA BKN008
PROB30
TEMPO 0309/0311 4000 RADZ SCT005 BKN007
TEMPO 0312/0318 6000 RA SCT012 BKN016



MET'MAP, your aeronautical weather chart ! - Copyright ORBIFLY December 2007 - Disclaimer

ORBIFLY MET'MAP TEAM :

Programming & Development : Alexandra Zaïnal
Concept & original design : Baudouin d'Aumeries
Assistance for programming : Marc-Olivier Méhu
Technical & hardware support : Manuel Goepfert

Contact : metmap@orbifly.com




SOURCES & CREDITS :

   NOAA